sensor_id;sensor_type;location;lat;lon;timestamp;P1;durP1;ratioP1;P2;durP2;ratioP2
21741;SDS011;11033;47.490;11.116;2022-09-29T00:00:19;0.30;;;0.30;;
21741;SDS011;11033;47.490;11.116;2022-09-29T00:02:45;0.52;;;0.30;;
21741;SDS011;11033;47.490;11.116;2022-09-29T00:05:10;1.33;;;0.40;;
21741;SDS011;11033;47.490;11.116;2022-09-29T00:07:35;0.30;;;0.30;;
21741;SDS011;11033;47.490;11.116;2022-09-29T00:10:00;0.27;;;0.27;;
21741;SDS011;11033;47.490;11.116;2022-09-29T00:12:26;0.70;;;0.40;;
21741;SDS011;11033;47.490;11.116;2022-09-29T00:14:51;0.30;;;0.30;;
21741;SDS011;11033;47.490;11.116;2022-09-29T00:17:16;1.38;;;0.50;;
21741;SDS011;11033;47.490;11.116;2022-09-29T00:19:42;0.52;;;0.30;;
21741;SDS011;11033;47.490;11.116;2022-09-29T00:22:07;0.40;;;0.40;;
21741;SDS011;11033;47.490;11.116;2022-09-29T00:24:33;0.38;;;0.30;;
21741;SDS011;11033;47.490;11.116;2022-09-29T00:26:59;0.30;;;0.30;;
21741;SDS011;11033;47.490;11.116;2022-09-29T00:29:25;0.95;;;0.40;;
21741;SDS011;11033;47.490;11.116;2022-09-29T00:31:50;0.40;;;0.40;;
21741;SDS011;11033;47.490;11.116;2022-09-29T00:34:16;0.38;;;0.38;;
21741;SDS011;11033;47.490;11.116;2022-09-29T00:36:41;2.25;;;0.43;;
21741;SDS011;11033;47.490;11.116;2022-09-29T00:39:07;0.40;;;0.40;;
21741;SDS011;11033;47.490;11.116;2022-09-29T00:41:33;0.50;;;0.50;;
21741;SDS011;11033;47.490;11.116;2022-09-29T00:44:05;3.05;;;0.40;;
21741;SDS011;11033;47.490;11.116;2022-09-29T00:46:53;2.33;;;0.40;;
21741;SDS011;11033;47.490;11.116;2022-09-29T00:49:23;0.63;;;0.40;;
21741;SDS011;11033;47.490;11.116;2022-09-29T00:54:21;0.47;;;0.47;;
21741;SDS011;11033;47.490;11.116;2022-09-29T00:56:52;1.25;;;0.35;;
21741;SDS011;11033;47.490;11.116;2022-09-29T00:59:22;0.43;;;0.40;;
21741;SDS011;11033;47.490;11.116;2022-09-29T01:01:56;0.38;;;0.38;;
21741;SDS011;11033;47.490;11.116;2022-09-29T01:04:22;0.43;;;0.30;;
21741;SDS011;11033;47.490;11.116;2022-09-29T01:06:49;0.82;;;0.45;;
21741;SDS011;11033;47.490;11.116;2022-09-29T01:09:18;1.42;;;0.50;;
21741;SDS011;11033;47.490;11.116;2022-09-29T01:11:46;0.40;;;0.40;;
21741;SDS011;11033;47.490;11.116;2022-09-29T01:14:11;0.40;;;0.40;;
21741;SDS011;11033;47.490;11.116;2022-09-29T01:16:37;1.10;;;0.40;;
21741;SDS011;11033;47.490;11.116;2022-09-29T01:19:07;0.30;;;0.30;;
21741;SDS011;11033;47.490;11.116;2022-09-29T01:21:42;0.30;;;0.30;;
21741;SDS011;11033;47.490;11.116;2022-09-29T01:33:17;0.22;;;0.22;;
21741;SDS011;11033;47.490;11.116;2022-09-29T01:36:04;0.87;;;0.80;;
21741;SDS011;11033;47.490;11.116;2022-09-29T01:38:45;0.40;;;0.40;;
21741;SDS011;11033;47.490;11.116;2022-09-29T01:41:27;1.55;;;0.32;;
21741;SDS011;11033;47.490;11.116;2022-09-29T01:49:29;0.50;;;0.40;;
21741;SDS011;11033;47.490;11.116;2022-09-29T01:52:02;0.70;;;0.70;;
21741;SDS011;11033;47.490;11.116;2022-09-29T01:54:35;0.30;;;0.30;;
21741;SDS011;11033;47.490;11.116;2022-09-29T01:57:09;0.40;;;0.40;;
21741;SDS011;11033;47.490;11.116;2022-09-29T01:59:48;0.63;;;0.35;;
21741;SDS011;11033;47.490;11.116;2022-09-29T02:02:23;0.75;;;0.75;;
21741;SDS011;11033;47.490;11.116;2022-09-29T02:04:55;2.05;;;0.40;;
21741;SDS011;11033;47.490;11.116;2022-09-29T02:07:30;0.70;;;0.38;;
21741;SDS011;11033;47.490;11.116;2022-09-29T02:10:04;0.40;;;0.40;;
21741;SDS011;11033;47.490;11.116;2022-09-29T02:12:47;5.35;;;0.98;;
21741;SDS011;11033;47.490;11.116;2022-09-29T02:15:18;0.50;;;0.50;;
21741;SDS011;11033;47.490;11.116;2022-09-29T02:17:48;1.25;;;0.45;;
21741;SDS011;11033;47.490;11.116;2022-09-29T02:20:14;0.77;;;0.30;;
21741;SDS011;11033;47.490;11.116;2022-09-29T02:22:40;0.40;;;0.40;;
21741;SDS011;11033;47.490;11.116;2022-09-29T02:25:07;0.35;;;0.35;;
21741;SDS011;11033;47.490;11.116;2022-09-29T02:27:35;0.40;;;0.40;;
21741;SDS011;11033;47.490;11.116;2022-09-29T02:30:01;0.30;;;0.30;;
21741;SDS011;11033;47.490;11.116;2022-09-29T02:32:26;0.20;;;0.20;;
21741;SDS011;11033;47.490;11.116;2022-09-29T02:34:53;0.30;;;0.30;;
21741;SDS011;11033;47.490;11.116;2022-09-29T02:46:47;0.43;;;0.40;;
21741;SDS011;11033;47.490;11.116;2022-09-29T02:55:17;1.77;;;0.43;;
21741;SDS011;11033;47.490;11.116;2022-09-29T02:57:56;2.47;;;0.50;;
21741;SDS011;11033;47.490;11.116;2022-09-29T03:00:27;0.90;;;0.30;;
21741;SDS011;11033;47.490;11.116;2022-09-29T03:02:53;0.30;;;0.30;;
21741;SDS011;11033;47.490;11.116;2022-09-29T03:05:19;0.30;;;0.30;;
21741;SDS011;11033;47.490;11.116;2022-09-29T03:07:46;1.73;;;0.38;;
21741;SDS011;11033;47.490;11.116;2022-09-29T03:10:13;0.30;;;0.30;;
21741;SDS011;11033;47.490;11.116;2022-09-29T03:12:39;0.40;;;0.40;;
21741;SDS011;11033;47.490;11.116;2022-09-29T03:15:05;0.65;;;0.25;;
21741;SDS011;11033;47.490;11.116;2022-09-29T03:17:31;0.68;;;0.50;;
21741;SDS011;11033;47.490;11.116;2022-09-29T03:19:57;0.30;;;0.30;;
21741;SDS011;11033;47.490;11.116;2022-09-29T03:22:23;0.98;;;0.50;;
21741;SDS011;11033;47.490;11.116;2022-09-29T03:24:48;1.15;;;0.40;;
21741;SDS011;11033;47.490;11.116;2022-09-29T03:27:14;1.95;;;0.43;;
21741;SDS011;11033;47.490;11.116;2022-09-29T03:29:39;1.55;;;0.40;;
21741;SDS011;11033;47.490;11.116;2022-09-29T03:32:04;0.30;;;0.30;;
21741;SDS011;11033;47.490;11.116;2022-09-29T03:34:30;0.30;;;0.30;;
21741;SDS011;11033;47.490;11.116;2022-09-29T03:36:56;1.23;;;0.50;;
21741;SDS011;11033;47.490;11.116;2022-09-29T03:39:22;0.32;;;0.32;;
21741;SDS011;11033;47.490;11.116;2022-09-29T03:41:48;0.20;;;0.20;;
21741;SDS011;11033;47.490;11.116;2022-09-29T03:44:14;0.68;;;0.50;;
21741;SDS011;11033;47.490;11.116;2022-09-29T03:46:40;0.77;;;0.70;;
21741;SDS011;11033;47.490;11.116;2022-09-29T03:49:05;0.40;;;0.40;;
21741;SDS011;11033;47.490;11.116;2022-09-29T03:51:30;2.38;;;0.50;;
21741;SDS011;11033;47.490;11.116;2022-09-29T03:53:56;0.30;;;0.30;;
21741;SDS011;11033;47.490;11.116;2022-09-29T03:56:21;0.75;;;0.43;;
21741;SDS011;11033;47.490;11.116;2022-09-29T03:58:46;0.47;;;0.45;;
21741;SDS011;11033;47.490;11.116;2022-09-29T04:01:12;0.50;;;0.50;;
21741;SDS011;11033;47.490;11.116;2022-09-29T04:03:37;0.67;;;0.37;;
21741;SDS011;11033;47.490;11.116;2022-09-29T04:06:02;0.30;;;0.30;;
21741;SDS011;11033;47.490;11.116;2022-09-29T04:08:28;0.30;;;0.30;;
21741;SDS011;11033;47.490;11.116;2022-09-29T04:10:53;0.40;;;0.40;;
21741;SDS011;11033;47.490;11.116;2022-09-29T04:13:18;0.67;;;0.60;;
21741;SDS011;11033;47.490;11.116;2022-09-29T04:15:45;0.40;;;0.40;;
21741;SDS011;11033;47.490;11.116;2022-09-29T04:18:14;1.70;;;0.50;;
21741;SDS011;11033;47.490;11.116;2022-09-29T04:20:39;0.70;;;0.70;;
21741;SDS011;11033;47.490;11.116;2022-09-29T04:23:04;0.30;;;0.30;;
21741;SDS011;11033;47.490;11.116;2022-09-29T04:25:30;0.40;;;0.40;;
21741;SDS011;11033;47.490;11.116;2022-09-29T04:27:57;0.40;;;0.30;;
21741;SDS011;11033;47.490;11.116;2022-09-29T04:30:22;0.40;;;0.40;;
21741;SDS011;11033;47.490;11.116;2022-09-29T04:32:48;0.50;;;0.50;;
21741;SDS011;11033;47.490;11.116;2022-09-29T04:35:13;1.17;;;0.70;;
21741;SDS011;11033;47.490;11.116;2022-09-29T04:37:38;2.67;;;0.57;;
21741;SDS011;11033;47.490;11.116;2022-09-29T04:40:04;0.82;;;0.50;;
21741;SDS011;11033;47.490;11.116;2022-09-29T04:42:30;0.43;;;0.43;;
21741;SDS011;11033;47.490;11.116;2022-09-29T04:44:55;0.30;;;0.30;;
21741;SDS011;11033;47.490;11.116;2022-09-29T04:47:20;0.40;;;0.40;;
21741;SDS011;11033;47.490;11.116;2022-09-29T04:49:46;0.70;;;0.50;;
21741;SDS011;11033;47.490;11.116;2022-09-29T04:52:11;1.20;;;0.50;;
21741;SDS011;11033;47.490;11.116;2022-09-29T04:54:38;0.60;;;0.60;;
21741;SDS011;11033;47.490;11.116;2022-09-29T04:57:03;0.60;;;0.60;;
21741;SDS011;11033;47.490;11.116;2022-09-29T04:59:29;0.77;;;0.68;;
21741;SDS011;11033;47.490;11.116;2022-09-29T05:01:54;1.55;;;0.80;;
21741;SDS011;11033;47.490;11.116;2022-09-29T05:04:20;0.60;;;0.60;;
21741;SDS011;11033;47.490;11.116;2022-09-29T05:06:45;0.70;;;0.70;;
21741;SDS011;11033;47.490;11.116;2022-09-29T05:09:10;1.45;;;0.75;;
21741;SDS011;11033;47.490;11.116;2022-09-29T05:11:36;0.95;;;0.80;;
21741;SDS011;11033;47.490;11.116;2022-09-29T05:14:01;4.05;;;1.33;;
21741;SDS011;11033;47.490;11.116;2022-09-29T05:16:27;1.65;;;1.30;;
21741;SDS011;11033;47.490;11.116;2022-09-29T05:18:53;1.45;;;0.95;;
21741;SDS011;11033;47.490;11.116;2022-09-29T05:21:18;2.70;;;1.33;;
21741;SDS011;11033;47.490;11.116;2022-09-29T05:23:43;1.90;;;1.55;;
21741;SDS011;11033;47.490;11.116;2022-09-29T05:26:09;1.85;;;1.48;;
21741;SDS011;11033;47.490;11.116;2022-09-29T05:28:36;1.00;;;0.88;;
21741;SDS011;11033;47.490;11.116;2022-09-29T05:31:06;1.33;;;0.98;;
21741;SDS011;11033;47.490;11.116;2022-09-29T05:33:33;3.77;;;1.30;;
21741;SDS011;11033;47.490;11.116;2022-09-29T05:35:59;1.75;;;1.30;;
21741;SDS011;11033;47.490;11.116;2022-09-29T05:38:25;1.17;;;0.95;;
21741;SDS011;11033;47.490;11.116;2022-09-29T05:40:51;1.05;;;0.90;;
21741;SDS011;11033;47.490;11.116;2022-09-29T05:43:17;0.98;;;0.88;;
21741;SDS011;11033;47.490;11.116;2022-09-29T05:45:45;2.63;;;0.98;;
21741;SDS011;11033;47.490;11.116;2022-09-29T05:48:10;0.68;;;0.68;;
21741;SDS011;11033;47.490;11.116;2022-09-29T05:50:36;0.80;;;0.80;;
21741;SDS011;11033;47.490;11.116;2022-09-29T05:53:06;0.80;;;0.80;;
21741;SDS011;11033;47.490;11.116;2022-09-29T05:55:32;2.05;;;0.80;;
21741;SDS011;11033;47.490;11.116;2022-09-29T05:57:57;2.60;;;0.70;;
21741;SDS011;11033;47.490;11.116;2022-09-29T06:00:23;0.70;;;0.70;;
21741;SDS011;11033;47.490;11.116;2022-09-29T06:02:48;0.88;;;0.60;;
21741;SDS011;11033;47.490;11.116;2022-09-29T06:05:13;0.60;;;0.60;;
21741;SDS011;11033;47.490;11.116;2022-09-29T06:07:39;1.40;;;0.60;;
21741;SDS011;11033;47.490;11.116;2022-09-29T06:10:04;1.87;;;0.83;;
21741;SDS011;11033;47.490;11.116;2022-09-29T06:12:32;1.23;;;0.70;;
21741;SDS011;11033;47.490;11.116;2022-09-29T06:14:59;0.60;;;0.60;;
21741;SDS011;11033;47.490;11.116;2022-09-29T06:17:25;0.50;;;0.50;;
21741;SDS011;11033;47.490;11.116;2022-09-29T06:19:50;0.80;;;0.80;;
21741;SDS011;11033;47.490;11.116;2022-09-29T06:22:16;0.80;;;0.80;;
21741;SDS011;11033;47.490;11.116;2022-09-29T06:24:43;1.13;;;0.80;;
21741;SDS011;11033;47.490;11.116;2022-09-29T06:27:08;0.70;;;0.70;;
21741;SDS011;11033;47.490;11.116;2022-09-29T06:29:34;1.58;;;0.50;;
21741;SDS011;11033;47.490;11.116;2022-09-29T06:32:00;0.70;;;0.70;;
21741;SDS011;11033;47.490;11.116;2022-09-29T06:34:26;0.70;;;0.70;;
21741;SDS011;11033;47.490;11.116;2022-09-29T06:36:51;1.08;;;0.88;;
21741;SDS011;11033;47.490;11.116;2022-09-29T06:39:35;2.70;;;0.90;;
21741;SDS011;11033;47.490;11.116;2022-09-29T06:42:01;0.95;;;0.73;;
21741;SDS011;11033;47.490;11.116;2022-09-29T06:44:27;1.13;;;1.00;;
21741;SDS011;11033;47.490;11.116;2022-09-29T06:46:54;0.85;;;0.80;;
21741;SDS011;11033;47.490;11.116;2022-09-29T06:49:20;1.80;;;0.90;;
21741;SDS011;11033;47.490;11.116;2022-09-29T06:51:46;0.85;;;0.73;;
21741;SDS011;11033;47.490;11.116;2022-09-29T06:54:13;1.17;;;0.73;;
21741;SDS011;11033;47.490;11.116;2022-09-29T06:56:40;0.73;;;0.70;;
21741;SDS011;11033;47.490;11.116;2022-09-29T06:59:05;0.45;;;0.43;;
21741;SDS011;11033;47.490;11.116;2022-09-29T07:01:31;1.13;;;0.82;;
21741;SDS011;11033;47.490;11.116;2022-09-29T07:03:57;0.50;;;0.50;;
21741;SDS011;11033;47.490;11.116;2022-09-29T07:06:24;1.10;;;0.70;;
21741;SDS011;11033;47.490;11.116;2022-09-29T07:08:53;1.90;;;0.77;;
21741;SDS011;11033;47.490;11.116;2022-09-29T07:11:19;0.90;;;0.80;;
21741;SDS011;11033;47.490;11.116;2022-09-29T07:13:44;0.80;;;0.80;;
21741;SDS011;11033;47.490;11.116;2022-09-29T07:16:10;2.60;;;0.82;;
21741;SDS011;11033;47.490;11.116;2022-09-29T07:18:38;1.30;;;0.60;;
21741;SDS011;11033;47.490;11.116;2022-09-29T07:21:05;1.27;;;0.47;;
21741;SDS011;11033;47.490;11.116;2022-09-29T07:23:34;2.15;;;0.77;;
21741;SDS011;11033;47.490;11.116;2022-09-29T07:26:01;7.85;;;0.85;;
21741;SDS011;11033;47.490;11.116;2022-09-29T07:28:27;2.20;;;0.60;;
21741;SDS011;11033;47.490;11.116;2022-09-29T07:33:29;0.95;;;0.60;;
21741;SDS011;11033;47.490;11.116;2022-09-29T07:35:55;2.08;;;0.93;;
21741;SDS011;11033;47.490;11.116;2022-09-29T07:38:23;3.17;;;0.82;;
21741;SDS011;11033;47.490;11.116;2022-09-29T07:40:48;1.90;;;1.58;;
21741;SDS011;11033;47.490;11.116;2022-09-29T07:43:14;6.43;;;1.30;;
21741;SDS011;11033;47.490;11.116;2022-09-29T07:45:44;1.42;;;1.10;;
21741;SDS011;11033;47.490;11.116;2022-09-29T07:48:13;1.40;;;0.80;;
21741;SDS011;11033;47.490;11.116;2022-09-29T07:50:39;1.58;;;1.15;;
21741;SDS011;11033;47.490;11.116;2022-09-29T07:53:04;4.15;;;1.17;;
21741;SDS011;11033;47.490;11.116;2022-09-29T07:55:30;1.67;;;1.05;;
21741;SDS011;11033;47.490;11.116;2022-09-29T07:57:55;1.65;;;1.38;;
21741;SDS011;11033;47.490;11.116;2022-09-29T08:00:21;3.60;;;1.45;;
21741;SDS011;11033;47.490;11.116;2022-09-29T08:02:46;3.38;;;0.98;;
21741;SDS011;11033;47.490;11.116;2022-09-29T08:05:12;1.05;;;0.80;;
21741;SDS011;11033;47.490;11.116;2022-09-29T08:07:37;2.55;;;1.00;;
21741;SDS011;11033;47.490;11.116;2022-09-29T08:10:02;2.17;;;1.15;;
21741;SDS011;11033;47.490;11.116;2022-09-29T08:12:28;1.00;;;0.88;;
21741;SDS011;11033;47.490;11.116;2022-09-29T08:14:54;6.90;;;1.50;;
21741;SDS011;11033;47.490;11.116;2022-09-29T08:17:19;1.33;;;0.90;;
21741;SDS011;11033;47.490;11.116;2022-09-29T08:19:44;1.02;;;0.90;;
21741;SDS011;11033;47.490;11.116;2022-09-29T08:22:10;1.38;;;1.05;;
21741;SDS011;11033;47.490;11.116;2022-09-29T08:24:35;1.17;;;1.17;;
21741;SDS011;11033;47.490;11.116;2022-09-29T08:27:04;3.55;;;1.10;;
21741;SDS011;11033;47.490;11.116;2022-09-29T08:29:31;1.83;;;1.13;;
21741;SDS011;11033;47.490;11.116;2022-09-29T08:31:56;1.33;;;0.95;;
21741;SDS011;11033;47.490;11.116;2022-09-29T08:34:23;1.67;;;0.88;;
21741;SDS011;11033;47.490;11.116;2022-09-29T08:36:48;0.82;;;0.82;;
21741;SDS011;11033;47.490;11.116;2022-09-29T08:39:14;1.05;;;1.02;;
21741;SDS011;11033;47.490;11.116;2022-09-29T08:41:45;1.27;;;1.00;;
21741;SDS011;11033;47.490;11.116;2022-09-29T08:46:53;1.45;;;1.35;;
21741;SDS011;11033;47.490;11.116;2022-09-29T08:49:28;2.50;;;1.30;;
21741;SDS011;11033;47.490;11.116;2022-09-29T08:52:09;3.15;;;2.25;;
21741;SDS011;11033;47.490;11.116;2022-09-29T08:54:39;5.18;;;2.90;;
21741;SDS011;11033;47.490;11.116;2022-09-29T08:57:11;6.50;;;3.40;;
21741;SDS011;11033;47.490;11.116;2022-09-29T09:10:43;1.98;;;1.58;;
21741;SDS011;11033;47.490;11.116;2022-09-29T09:21:26;1.20;;;1.10;;
21741;SDS011;11033;47.490;11.116;2022-09-29T09:26:38;0.82;;;0.80;;
21741;SDS011;11033;47.490;11.116;2022-09-29T09:29:49;1.45;;;0.90;;
21741;SDS011;11033;47.490;11.116;2022-09-29T09:32:03;1.00;;;0.90;;
21741;SDS011;11033;47.490;11.116;2022-09-29T09:34:34;1.95;;;0.98;;
21741;SDS011;11033;47.490;11.116;2022-09-29T09:37:28;0.80;;;0.80;;
21741;SDS011;11033;47.490;11.116;2022-09-29T09:42:36;0.98;;;0.98;;
21741;SDS011;11033;47.490;11.116;2022-09-29T09:45:04;1.83;;;0.80;;
21741;SDS011;11033;47.490;11.116;2022-09-29T09:47:45;0.70;;;0.70;;
21741;SDS011;11033;47.490;11.116;2022-09-29T09:50:15;0.80;;;0.80;;
21741;SDS011;11033;47.490;11.116;2022-09-29T09:52:43;0.90;;;0.90;;
21741;SDS011;11033;47.490;11.116;2022-09-29T09:55:16;0.55;;;0.55;;
21741;SDS011;11033;47.490;11.116;2022-09-29T09:57:50;1.13;;;1.02;;
21741;SDS011;11033;47.490;11.116;2022-09-29T10:03:15;0.98;;;0.90;;
21741;SDS011;11033;47.490;11.116;2022-09-29T10:05:44;1.98;;;0.70;;
21741;SDS011;11033;47.490;11.116;2022-09-29T10:10:40;0.80;;;0.80;;
21741;SDS011;11033;47.490;11.116;2022-09-29T10:13:08;0.75;;;0.75;;
21741;SDS011;11033;47.490;11.116;2022-09-29T10:15:49;1.20;;;1.08;;
21741;SDS011;11033;47.490;11.116;2022-09-29T10:18:23;3.80;;;2.00;;
21741;SDS011;11033;47.490;11.116;2022-09-29T10:20:50;4.63;;;1.70;;
21741;SDS011;11033;47.490;11.116;2022-09-29T10:26:13;3.13;;;1.40;;
21741;SDS011;11033;47.490;11.116;2022-09-29T10:31:16;1.15;;;1.05;;
21741;SDS011;11033;47.490;11.116;2022-09-29T10:33:45;1.30;;;1.20;;
21741;SDS011;11033;47.490;11.116;2022-09-29T10:36:14;2.03;;;1.00;;
21741;SDS011;11033;47.490;11.116;2022-09-29T10:38:44;2.37;;;1.00;;
21741;SDS011;11033;47.490;11.116;2022-09-29T10:41:11;1.02;;;0.90;;
21741;SDS011;11033;47.490;11.116;2022-09-29T10:43:37;1.35;;;1.00;;
21741;SDS011;11033;47.490;11.116;2022-09-29T10:46:31;0.90;;;0.90;;
21741;SDS011;11033;47.490;11.116;2022-09-29T10:49:23;1.85;;;1.35;;
21741;SDS011;11033;47.490;11.116;2022-09-29T10:52:05;1.73;;;0.90;;
21741;SDS011;11033;47.490;11.116;2022-09-29T10:54:54;1.95;;;1.13;;
21741;SDS011;11033;47.490;11.116;2022-09-29T10:57:25;1.02;;;1.00;;
21741;SDS011;11033;47.490;11.116;2022-09-29T10:59:53;0.95;;;0.95;;
21741;SDS011;11033;47.490;11.116;2022-09-29T11:02:24;1.33;;;1.10;;
21741;SDS011;11033;47.490;11.116;2022-09-29T11:04:55;1.80;;;0.70;;
21741;SDS011;11033;47.490;11.116;2022-09-29T11:07:24;0.80;;;0.80;;
21741;SDS011;11033;47.490;11.116;2022-09-29T11:09:50;2.75;;;1.10;;
21741;SDS011;11033;47.490;11.116;2022-09-29T11:12:26;1.20;;;1.10;;
21741;SDS011;11033;47.490;11.116;2022-09-29T11:14:58;2.03;;;1.40;;
21741;SDS011;11033;47.490;11.116;2022-09-29T11:19:51;2.15;;;1.27;;
21741;SDS011;11033;47.490;11.116;2022-09-29T11:25:18;1.58;;;1.48;;
21741;SDS011;11033;47.490;11.116;2022-09-29T11:31:22;1.92;;;1.60;;
21741;SDS011;11033;47.490;11.116;2022-09-29T11:34:19;4.57;;;1.60;;
21741;SDS011;11033;47.490;11.116;2022-09-29T11:36:59;4.32;;;1.58;;
21741;SDS011;11033;47.490;11.116;2022-09-29T11:39:42;1.42;;;1.33;;
21741;SDS011;11033;47.490;11.116;2022-09-29T11:44:55;1.52;;;1.42;;
21741;SDS011;11033;47.490;11.116;2022-09-29T11:52:40;1.55;;;1.45;;
21741;SDS011;11033;47.490;11.116;2022-09-29T12:00:44;1.73;;;1.33;;
21741;SDS011;11033;47.490;11.116;2022-09-29T12:03:26;2.00;;;1.80;;
21741;SDS011;11033;47.490;11.116;2022-09-29T12:09:41;2.78;;;1.52;;
21741;SDS011;11033;47.490;11.116;2022-09-29T12:14:24;1.60;;;1.50;;
21741;SDS011;11033;47.490;11.116;2022-09-29T12:17:16;3.00;;;1.67;;
21741;SDS011;11033;47.490;11.116;2022-09-29T12:19:43;2.47;;;2.20;;
21741;SDS011;11033;47.490;11.116;2022-09-29T12:22:16;1.75;;;1.65;;
21741;SDS011;11033;47.490;11.116;2022-09-29T12:24:44;2.75;;;2.03;;
21741;SDS011;11033;47.490;11.116;2022-09-29T12:30:20;4.85;;;2.20;;
21741;SDS011;11033;47.490;11.116;2022-09-29T12:32:51;2.03;;;1.73;;
21741;SDS011;11033;47.490;11.116;2022-09-29T12:35:24;1.75;;;1.65;;
21741;SDS011;11033;47.490;11.116;2022-09-29T12:38:07;2.63;;;1.80;;
21741;SDS011;11033;47.490;11.116;2022-09-29T12:43:27;2.38;;;2.15;;
21741;SDS011;11033;47.490;11.116;2022-09-29T12:51:45;2.60;;;2.33;;
21741;SDS011;11033;47.490;11.116;2022-09-29T12:54:27;2.40;;;2.20;;
21741;SDS011;11033;47.490;11.116;2022-09-29T12:56:53;3.95;;;2.25;;
21741;SDS011;11033;47.490;11.116;2022-09-29T13:01:49;2.10;;;1.90;;
21741;SDS011;11033;47.490;11.116;2022-09-29T13:04:26;3.42;;;2.30;;
21741;SDS011;11033;47.490;11.116;2022-09-29T13:10:10;2.35;;;2.03;;
21741;SDS011;11033;47.490;11.116;2022-09-29T13:12:58;1.67;;;1.58;;
21741;SDS011;11033;47.490;11.116;2022-09-29T13:21:10;1.90;;;1.75;;
21741;SDS011;11033;47.490;11.116;2022-09-29T13:26:54;1.63;;;1.50;;
21741;SDS011;11033;47.490;11.116;2022-09-29T13:29:23;2.00;;;1.60;;
21741;SDS011;11033;47.490;11.116;2022-09-29T13:31:50;5.75;;;1.40;;
21741;SDS011;11033;47.490;11.116;2022-09-29T13:39:36;3.00;;;2.00;;
21741;SDS011;11033;47.490;11.116;2022-09-29T13:42:46;2.38;;;1.88;;
21741;SDS011;11033;47.490;11.116;2022-09-29T13:45:13;3.35;;;1.60;;
21741;SDS011;11033;47.490;11.116;2022-09-29T13:48:09;1.70;;;1.60;;
21741;SDS011;11033;47.490;11.116;2022-09-29T13:50:55;1.98;;;1.77;;
21741;SDS011;11033;47.490;11.116;2022-09-29T13:58:29;3.10;;;2.50;;
21741;SDS011;11033;47.490;11.116;2022-09-29T14:00:57;3.47;;;2.88;;
21741;SDS011;11033;47.490;11.116;2022-09-29T14:03:31;4.30;;;2.75;;
21741;SDS011;11033;47.490;11.116;2022-09-29T14:06:16;5.38;;;3.40;;
21741;SDS011;11033;47.490;11.116;2022-09-29T14:11:43;6.50;;;4.82;;
21741;SDS011;11033;47.490;11.116;2022-09-29T14:14:14;8.57;;;5.90;;
21741;SDS011;11033;47.490;11.116;2022-09-29T14:16:56;9.13;;;4.88;;
21741;SDS011;11033;47.490;11.116;2022-09-29T14:24:53;8.03;;;4.57;;
21741;SDS011;11033;47.490;11.116;2022-09-29T14:27:30;6.78;;;4.47;;
21741;SDS011;11033;47.490;11.116;2022-09-29T14:32:39;5.82;;;3.90;;
21741;SDS011;11033;47.490;11.116;2022-09-29T14:35:17;5.35;;;4.30;;
21741;SDS011;11033;47.490;11.116;2022-09-29T14:37:43;5.93;;;4.18;;
21741;SDS011;11033;47.490;11.116;2022-09-29T14:40:12;5.18;;;4.20;;
21741;SDS011;11033;47.490;11.116;2022-09-29T14:45:29;3.45;;;3.15;;
21741;SDS011;11033;47.490;11.116;2022-09-29T14:48:24;5.38;;;3.15;;
21741;SDS011;11033;47.490;11.116;2022-09-29T14:51:25;3.35;;;2.92;;
21741;SDS011;11033;47.490;11.116;2022-09-29T14:57:15;3.65;;;2.95;;
21741;SDS011;11033;47.490;11.116;2022-09-29T15:02:43;4.22;;;3.42;;
21741;SDS011;11033;47.490;11.116;2022-09-29T15:05:22;5.25;;;3.67;;
21741;SDS011;11033;47.490;11.116;2022-09-29T15:07:48;4.72;;;3.47;;
21741;SDS011;11033;47.490;11.116;2022-09-29T15:10:47;3.58;;;3.20;;
21741;SDS011;11033;47.490;11.116;2022-09-29T15:13:24;3.97;;;3.13;;
21741;SDS011;11033;47.490;11.116;2022-09-29T15:16:20;4.70;;;2.60;;
21741;SDS011;11033;47.490;11.116;2022-09-29T15:18:58;2.50;;;2.30;;
21741;SDS011;11033;47.490;11.116;2022-09-29T15:26:54;3.47;;;2.78;;
21741;SDS011;11033;47.490;11.116;2022-09-29T15:29:19;3.92;;;3.13;;
21741;SDS011;11033;47.490;11.116;2022-09-29T15:31:45;3.25;;;2.95;;
21741;SDS011;11033;47.490;11.116;2022-09-29T15:34:16;2.97;;;2.67;;
21741;SDS011;11033;47.490;11.116;2022-09-29T15:36:45;4.18;;;2.90;;
21741;SDS011;11033;47.490;11.116;2022-09-29T15:42:00;3.42;;;2.08;;
21741;SDS011;11033;47.490;11.116;2022-09-29T15:44:28;2.45;;;2.25;;
21741;SDS011;11033;47.490;11.116;2022-09-29T15:46:58;2.70;;;2.42;;
21741;SDS011;11033;47.490;11.116;2022-09-29T15:49:27;3.22;;;2.80;;
21741;SDS011;11033;47.490;11.116;2022-09-29T15:51:54;4.03;;;3.28;;
21741;SDS011;11033;47.490;11.116;2022-09-29T15:54:21;4.25;;;3.15;;
21741;SDS011;11033;47.490;11.116;2022-09-29T15:56:46;3.75;;;3.20;;
21741;SDS011;11033;47.490;11.116;2022-09-29T15:59:41;4.20;;;3.53;;
21741;SDS011;11033;47.490;11.116;2022-09-29T16:02:15;4.97;;;3.85;;
21741;SDS011;11033;47.490;11.116;2022-09-29T16:04:45;4.13;;;3.55;;
21741;SDS011;11033;47.490;11.116;2022-09-29T16:07:16;5.72;;;4.07;;
21741;SDS011;11033;47.490;11.116;2022-09-29T16:09:46;5.18;;;3.47;;
21741;SDS011;11033;47.490;11.116;2022-09-29T16:12:13;5.30;;;3.85;;
21741;SDS011;11033;47.490;11.116;2022-09-29T16:14:44;4.85;;;4.22;;
21741;SDS011;11033;47.490;11.116;2022-09-29T16:17:09;7.97;;;5.60;;
21741;SDS011;11033;47.490;11.116;2022-09-29T16:19:36;15.10;;;9.48;;
21741;SDS011;11033;47.490;11.116;2022-09-29T16:22:05;22.45;;;14.85;;
21741;SDS011;11033;47.490;11.116;2022-09-29T16:24:33;20.10;;;13.75;;
21741;SDS011;11033;47.490;11.116;2022-09-29T16:27:00;13.45;;;10.20;;
21741;SDS011;11033;47.490;11.116;2022-09-29T16:29:27;12.13;;;9.45;;
21741;SDS011;11033;47.490;11.116;2022-09-29T16:32:32;7.60;;;6.80;;
21741;SDS011;11033;47.490;11.116;2022-09-29T16:38:48;8.00;;;7.20;;
21741;SDS011;11033;47.490;11.116;2022-09-29T16:41:06;8.57;;;6.57;;
21741;SDS011;11033;47.490;11.116;2022-09-29T16:43:33;9.93;;;6.60;;
21741;SDS011;11033;47.490;11.116;2022-09-29T16:46:00;8.77;;;7.50;;
21741;SDS011;11033;47.490;11.116;2022-09-29T16:48:30;8.20;;;6.60;;
21741;SDS011;11033;47.490;11.116;2022-09-29T16:51:05;11.63;;;8.43;;
21741;SDS011;11033;47.490;11.116;2022-09-29T16:53:36;9.52;;;7.43;;
21741;SDS011;11033;47.490;11.116;2022-09-29T16:56:03;12.40;;;9.20;;
21741;SDS011;11033;47.490;11.116;2022-09-29T16:58:34;10.77;;;7.15;;
21741;SDS011;11033;47.490;11.116;2022-09-29T17:01:00;10.05;;;8.18;;
21741;SDS011;11033;47.490;11.116;2022-09-29T17:03:27;11.10;;;8.38;;
21741;SDS011;11033;47.490;11.116;2022-09-29T17:05:53;7.80;;;6.43;;
21741;SDS011;11033;47.490;11.116;2022-09-29T17:08:25;6.75;;;5.95;;
21741;SDS011;11033;47.490;11.116;2022-09-29T17:10:54;7.80;;;6.70;;
21741;SDS011;11033;47.490;11.116;2022-09-29T17:13:21;5.53;;;4.93;;
21741;SDS011;11033;47.490;11.116;2022-09-29T17:15:48;9.55;;;5.47;;
21741;SDS011;11033;47.490;11.116;2022-09-29T17:18:16;5.90;;;5.03;;
21741;SDS011;11033;47.490;11.116;2022-09-29T17:20:43;11.10;;;7.78;;
21741;SDS011;11033;47.490;11.116;2022-09-29T17:23:08;10.73;;;7.88;;
21741;SDS011;11033;47.490;11.116;2022-09-29T17:25:34;7.78;;;6.97;;
21741;SDS011;11033;47.490;11.116;2022-09-29T17:28:04;7.85;;;6.05;;
21741;SDS011;11033;47.490;11.116;2022-09-29T17:30:44;11.95;;;6.90;;
21741;SDS011;11033;47.490;11.116;2022-09-29T17:33:11;9.38;;;7.70;;
21741;SDS011;11033;47.490;11.116;2022-09-29T17:35:40;10.98;;;7.47;;
21741;SDS011;11033;47.490;11.116;2022-09-29T17:38:09;13.15;;;8.15;;